createdAt,value
2018-11-23T00:02:24.534Z,2.60
2018-11-23T00:04:52.895Z,2.50
2018-11-23T00:07:21.400Z,2.50
2018-11-23T00:09:49.728Z,2.50
2018-11-23T00:12:18.043Z,2.50
2018-11-23T00:14:46.432Z,2.50
2018-11-23T00:17:14.804Z,2.50
2018-11-23T00:19:43.194Z,2.50
2018-11-23T00:22:12.184Z,2.40
2018-11-23T00:24:40.887Z,2.40
2018-11-23T00:27:09.597Z,2.40
2018-11-23T00:29:38.306Z,2.40
2018-11-23T00:32:06.635Z,2.30
2018-11-23T00:34:34.956Z,2.30
2018-11-23T00:37:03.290Z,2.40
2018-11-23T00:39:31.612Z,2.30
2018-11-23T00:41:59.940Z,2.40
2018-11-23T00:44:28.203Z,2.40
2018-11-23T00:46:56.522Z,2.40
2018-11-23T00:49:24.822Z,2.50
2018-11-23T00:51:53.180Z,2.50
2018-11-23T00:54:21.491Z,2.60
2018-11-23T00:56:49.795Z,2.60
2018-11-23T00:59:18.430Z,2.70
2018-11-23T01:01:52.292Z,2.70
2018-11-23T01:04:20.753Z,2.80
2018-11-23T01:06:49.160Z,2.80
2018-11-23T01:09:18.742Z,2.90
2018-11-23T01:11:47.348Z,2.90
2018-11-23T01:14:15.905Z,3.00
2018-11-23T01:16:44.311Z,3.00
2018-11-23T01:19:12.607Z,3.00
2018-11-23T01:21:40.939Z,3.10
2018-11-23T01:24:09.317Z,3.00
2018-11-23T01:26:37.675Z,3.00
2018-11-23T01:29:05.988Z,3.10
2018-11-23T01:31:34.324Z,3.10
2018-11-23T01:34:02.674Z,3.10
2018-11-23T01:36:30.989Z,3.00
2018-11-23T01:38:59.280Z,3.00
2018-11-23T01:41:27.675Z,3.00
2018-11-23T01:43:56.153Z,3.00
2018-11-23T01:46:24.638Z,3.00
2018-11-23T01:48:53.170Z,2.90
2018-11-23T01:51:22.481Z,2.90
2018-11-23T01:53:51.513Z,2.90
2018-11-23T01:56:20.109Z,2.80
2018-11-23T01:58:50.156Z,2.80
2018-11-23T02:01:19.626Z,2.80
2018-11-23T02:03:49.119Z,2.90
2018-11-23T02:06:18.289Z,2.80
2018-11-23T02:08:48.690Z,2.80
2018-11-23T02:11:18.085Z,2.80
2018-11-23T02:13:49.682Z,2.90
2018-11-23T02:16:18.738Z,2.80
2018-11-23T02:18:47.289Z,2.80
2018-11-23T02:21:15.652Z,2.70
2018-11-23T02:23:44.059Z,2.70
2018-11-23T02:26:12.366Z,2.80
2018-11-23T02:28:40.743Z,2.70
2018-11-23T02:31:09.952Z,2.70
2018-11-23T02:33:40.236Z,2.60
2018-11-23T02:36:09.525Z,2.60
2018-11-23T02:38:38.433Z,2.50
2018-11-23T02:41:06.692Z,2.40
2018-11-23T02:43:35.154Z,2.30
2018-11-23T02:46:03.957Z,2.20
2018-11-23T02:48:32.572Z,2.20
2018-11-23T02:51:01.281Z,2.20
2018-11-23T02:53:29.667Z,2.10
2018-11-23T02:55:58.015Z,2.10
2018-11-23T02:58:26.366Z,2.10
2018-11-23T03:00:54.792Z,2.10
2018-11-23T03:03:23.116Z,2.10
2018-11-23T03:05:51.427Z,2.00
2018-11-23T03:08:19.820Z,2.00
2018-11-23T03:10:48.367Z,2.00
2018-11-23T03:13:16.812Z,1.90
2018-11-23T03:15:45.297Z,1.90
2018-11-23T03:18:13.701Z,1.90
2018-11-23T03:20:42.025Z,1.90
2018-11-23T03:23:10.597Z,1.90
2018-11-23T03:25:39.145Z,1.90
2018-11-23T03:28:08.010Z,1.90
2018-11-23T03:30:36.447Z,1.80
2018-11-23T03:33:04.929Z,1.80
2018-11-23T03:35:33.262Z,1.80
2018-11-23T03:38:01.652Z,1.80
2018-11-23T03:40:30.027Z,1.80
2018-11-23T03:42:58.364Z,1.80
2018-11-23T03:45:27.325Z,1.80
2018-11-23T03:47:55.638Z,1.80
2018-11-23T03:50:24.002Z,1.80
2018-11-23T03:52:52.349Z,1.80
2018-11-23T03:55:20.860Z,1.80
2018-11-23T03:57:49.232Z,1.90
2018-11-23T04:00:20.341Z,1.90
2018-11-23T04:02:49.161Z,1.90
2018-11-23T04:05:18.104Z,1.90
2018-11-23T04:07:46.867Z,1.90
2018-11-23T04:10:16.361Z,1.90
2018-11-23T04:12:45.219Z,1.80
2018-11-23T04:15:14.237Z,1.80
2018-11-23T04:17:42.955Z,1.90
2018-11-23T04:20:13.664Z,1.90
2018-11-23T04:22:42.505Z,1.90
2018-11-23T04:25:11.393Z,1.90
2018-11-23T04:27:40.013Z,1.80
2018-11-23T04:30:12.273Z,1.80
2018-11-23T04:32:40.559Z,1.80
2018-11-23T04:35:10.929Z,1.90
2018-11-23T04:37:39.221Z,1.90
2018-11-23T04:40:08.756Z,1.90
2018-11-23T04:42:37.117Z,1.90
2018-11-23T04:45:05.725Z,1.80
2018-11-23T04:47:34.065Z,1.80
2018-11-23T04:50:02.405Z,1.80
2018-11-23T04:52:30.742Z,1.70
2018-11-23T04:54:59.376Z,1.70
2018-11-23T04:57:27.883Z,1.70
2018-11-23T04:59:56.429Z,1.70
2018-11-23T05:02:25.066Z,1.70
2018-11-23T05:04:53.751Z,1.70
2018-11-23T05:07:23.209Z,1.60
2018-11-23T05:09:51.659Z,1.60
2018-11-23T05:12:20.167Z,1.50
2018-11-23T05:14:48.469Z,1.50
2018-11-23T05:17:17.968Z,1.50
2018-11-23T05:19:46.438Z,1.50
2018-11-23T05:22:14.753Z,1.40
2018-11-23T05:24:43.214Z,1.40
2018-11-23T05:27:11.573Z,1.40
2018-11-23T05:29:40.187Z,1.40
2018-11-23T05:32:08.630Z,1.30
2018-11-23T05:34:36.983Z,1.30
2018-11-23T05:37:05.525Z,1.30
2018-11-23T05:39:34.224Z,1.30
2018-11-23T05:42:02.858Z,1.20
2018-11-23T05:44:31.792Z,1.20
2018-11-23T05:47:00.434Z,1.20
2018-11-23T05:49:29.325Z,1.20
2018-11-23T05:51:57.959Z,1.20
2018-11-23T05:54:26.459Z,1.30
2018-11-23T05:56:54.826Z,1.20
2018-11-23T05:59:23.175Z,1.20
2018-11-23T06:01:51.570Z,1.20
2018-11-23T06:04:19.884Z,1.10
2018-11-23T06:06:48.567Z,1.10
2018-11-23T06:09:16.854Z,1.10
2018-11-23T06:11:45.177Z,1.10
2018-11-23T06:14:13.501Z,1.00
2018-11-23T06:16:41.828Z,1.00
2018-11-23T06:19:10.444Z,1.00
2018-11-23T06:21:39.062Z,1.00
2018-11-23T06:24:07.572Z,1.00
2018-11-23T06:26:37.036Z,1.00
2018-11-23T06:29:05.694Z,1.00
2018-11-23T06:31:34.912Z,1.00
2018-11-23T06:34:04.299Z,1.10
2018-11-23T06:36:33.070Z,1.10
2018-11-23T06:39:02.963Z,1.10
2018-11-23T06:41:32.805Z,1.10
2018-11-23T06:44:02.767Z,1.10
2018-11-23T06:46:31.664Z,1.10
2018-11-23T06:49:00.647Z,1.10
2018-11-23T06:51:29.089Z,1.10
2018-11-23T06:53:57.368Z,1.00
2018-11-23T06:56:31.642Z,1.00
2018-11-23T06:59:10.713Z,1.00
2018-11-23T07:01:42.830Z,1.00
2018-11-23T07:04:12.751Z,1.00
2018-11-23T07:06:42.641Z,0.90
2018-11-23T07:09:13.054Z,0.90
2018-11-23T07:11:43.603Z,0.90
2018-11-23T07:14:14.352Z,0.90
2018-11-23T07:16:44.756Z,0.90
2018-11-23T07:19:15.613Z,0.90
2018-11-23T07:21:45.281Z,0.90
2018-11-23T07:24:16.248Z,0.90
2018-11-23T07:26:45.894Z,1.00
2018-11-23T07:29:16.391Z,1.00
2018-11-23T07:31:47.000Z,1.00
2018-11-23T07:34:19.043Z,1.00
2018-11-23T07:36:48.004Z,1.00
2018-11-23T07:42:19.660Z,1.10
2018-11-23T07:44:49.076Z,1.10
2018-11-23T07:47:19.954Z,1.10
2018-11-23T07:49:49.591Z,1.10
2018-11-23T07:52:21.246Z,1.10
2018-11-23T07:54:50.743Z,1.20
2018-11-23T07:57:22.685Z,1.20
2018-11-23T07:59:51.524Z,1.20
2018-11-23T08:02:22.193Z,1.30
2018-11-23T08:04:51.598Z,1.30
2018-11-23T08:07:23.585Z,1.30
2018-11-23T08:09:53.154Z,1.40
2018-11-23T08:12:24.059Z,1.40
2018-11-23T08:17:54.475Z,1.40
2018-11-23T08:20:25.202Z,1.40
2018-11-23T08:22:54.922Z,1.40
2018-11-23T08:25:27.013Z,1.40
2018-11-23T08:27:56.941Z,1.50
2018-11-23T08:30:26.852Z,1.50
2018-11-23T08:32:57.038Z,1.60
2018-11-23T08:35:27.435Z,1.60
2018-11-23T08:37:57.090Z,1.70
2018-11-23T08:40:29.279Z,1.70
2018-11-23T08:42:58.579Z,1.80
2018-11-23T08:45:28.923Z,1.80
2018-11-23T08:47:58.818Z,1.90
2018-11-23T08:50:30.152Z,2.00
2018-11-23T08:52:59.958Z,2.10
2018-11-23T08:55:30.338Z,2.10
2018-11-23T08:58:01.620Z,2.20
2018-11-23T09:00:31.020Z,2.30
2018-11-23T09:03:02.450Z,2.40
2018-11-23T09:05:31.564Z,2.40
2018-11-23T09:08:03.190Z,2.40
2018-11-23T09:10:32.821Z,2.50
2018-11-23T09:13:04.072Z,2.60
2018-11-23T09:15:33.370Z,2.60
2018-11-23T09:18:03.928Z,2.60
2018-11-23T09:20:35.620Z,2.70
2018-11-23T09:23:04.413Z,2.80
2018-11-23T09:25:38.066Z,2.80
2018-11-23T09:28:06.741Z,2.80
2018-11-23T09:30:36.164Z,2.80
2018-11-23T09:33:06.868Z,2.90
2018-11-23T09:35:36.726Z,3.00
2018-11-23T09:38:13.932Z,3.10
2018-11-23T09:41:04.817Z,3.20
2018-11-23T09:43:39.568Z,3.30
2018-11-23T09:46:07.967Z,3.30
2018-11-23T09:48:40.602Z,3.40
2018-11-23T09:51:09.244Z,3.40
2018-11-23T09:53:39.107Z,3.50
2018-11-23T09:56:08.531Z,3.50
2018-11-23T09:58:43.365Z,3.60
2018-11-23T10:03:36.708Z,3.70
2018-11-23T10:06:06.721Z,3.80
2018-11-23T10:08:37.423Z,3.90
2018-11-23T10:11:12.743Z,4.00
2018-11-23T10:13:42.281Z,4.10
2018-11-23T10:16:11.306Z,4.10
2018-11-23T10:18:39.975Z,4.10
2018-11-23T10:21:14.489Z,4.20
2018-11-23T10:23:44.548Z,4.40
2018-11-23T10:26:15.303Z,4.40
2018-11-23T10:28:45.509Z,4.50
2018-11-23T10:31:16.593Z,4.50
2018-11-23T10:33:45.395Z,4.50
2018-11-23T10:36:18.193Z,4.60
2018-11-23T10:38:46.852Z,4.60
2018-11-23T10:41:26.700Z,4.70
2018-11-23T10:43:56.046Z,4.70
2018-11-23T10:46:24.893Z,4.80
2018-11-23T10:48:56.205Z,4.80
2018-11-23T10:51:24.488Z,4.80
2018-11-23T10:53:53.018Z,4.90
2018-11-23T10:56:21.699Z,4.90
2018-11-23T10:58:50.646Z,5.00
2018-11-23T11:01:25.845Z,5.10
2018-11-23T11:03:59.908Z,5.10
2018-11-23T11:06:33.803Z,5.10
2018-11-23T11:09:02.425Z,5.30
2018-11-23T11:11:33.446Z,5.40
2018-11-23T11:14:03.325Z,5.50
2018-11-23T11:16:32.841Z,5.60
2018-11-23T11:19:02.084Z,5.60
2018-11-23T11:21:31.032Z,5.60
2018-11-23T11:23:59.963Z,5.60
2018-11-23T11:26:28.859Z,5.50
2018-11-23T11:28:57.609Z,5.60
2018-11-23T11:31:26.394Z,5.50
2018-11-23T11:33:55.599Z,5.60
2018-11-23T11:36:24.095Z,5.80
2018-11-23T11:38:52.539Z,5.80
2018-11-23T11:41:21.082Z,5.80
2018-11-23T11:43:49.456Z,5.90
2018-11-23T11:46:17.791Z,6.00
2018-11-23T11:48:46.448Z,6.10
2018-11-23T11:51:17.653Z,6.20
2018-11-23T11:53:43.648Z,6.20
2018-11-23T11:56:12.278Z,6.30
2018-11-23T11:58:40.702Z,6.40
2018-11-23T12:01:09.288Z,6.50
2018-11-23T12:03:37.804Z,6.60
2018-11-23T12:06:06.424Z,6.60
2018-11-23T12:08:35.091Z,6.50
2018-11-23T12:11:03.812Z,6.50
2018-11-23T12:13:32.678Z,6.60
2018-11-23T12:16:01.654Z,6.60
2018-11-23T12:18:33.170Z,6.60
2018-11-23T12:21:02.024Z,6.70
2018-11-23T12:23:31.314Z,6.80
2018-11-23T12:26:02.753Z,6.70
2018-11-23T12:28:35.014Z,6.50
2018-11-23T12:31:04.985Z,6.40
2018-11-23T12:33:34.623Z,6.50
2018-11-23T12:36:03.032Z,6.60
2018-11-23T12:38:34.383Z,6.70
2018-11-23T12:41:06.131Z,6.60
2018-11-23T12:43:38.050Z,6.60
2018-11-23T12:46:07.095Z,6.60
2018-11-23T12:48:35.694Z,6.60
2018-11-23T12:51:04.052Z,6.60
2018-11-23T12:53:32.705Z,6.70
2018-11-23T12:56:01.096Z,6.70
2018-11-23T12:58:29.382Z,6.70
2018-11-23T13:00:58.207Z,6.80
2018-11-23T13:03:27.059Z,6.80
2018-11-23T13:05:55.700Z,6.80
2018-11-23T13:08:25.390Z,6.80
2018-11-23T13:10:55.793Z,6.70
2018-11-23T13:13:24.922Z,6.80
2018-11-23T13:16:04.386Z,6.90
2018-11-23T13:18:41.865Z,6.80
2018-11-23T13:21:13.529Z,6.80
2018-11-23T13:23:43.460Z,6.90
2018-11-23T13:26:13.833Z,6.90
2018-11-23T13:28:44.487Z,6.90
2018-11-23T13:31:14.727Z,6.90
2018-11-23T13:33:44.370Z,6.90
2018-11-23T13:36:14.817Z,7.00
2018-11-23T13:38:45.678Z,7.00
2018-11-23T13:41:45.284Z,7.10
2018-11-23T13:44:17.619Z,7.00
2018-11-23T13:46:47.220Z,6.90
2018-11-23T13:49:16.768Z,6.90
2018-11-23T13:51:47.433Z,6.90
2018-11-23T13:54:17.727Z,6.90
2018-11-23T13:56:49.615Z,6.90
2018-11-23T13:59:18.706Z,6.90
2018-11-23T14:01:48.992Z,6.90
2018-11-23T14:04:21.769Z,6.90
2018-11-23T14:06:50.469Z,6.90
2018-11-23T14:09:19.864Z,6.90
2018-11-23T14:11:50.498Z,7.00
2018-11-23T14:14:22.839Z,7.10
2018-11-23T14:16:52.886Z,7.00
2018-11-23T14:19:22.606Z,6.90
2018-11-23T14:21:52.733Z,6.90
2018-11-23T14:24:23.234Z,6.90
2018-11-23T14:26:52.914Z,6.90
2018-11-23T14:29:21.361Z,6.90
2018-11-23T14:31:53.318Z,6.80
2018-11-23T14:34:23.368Z,6.80
2018-11-23T14:36:53.591Z,6.80
2018-11-23T14:39:23.010Z,6.80
2018-11-23T14:41:53.417Z,6.80
2018-11-23T14:44:24.436Z,6.90
2018-11-23T14:46:56.616Z,6.70
2018-11-23T14:49:25.512Z,6.80
2018-11-23T14:51:58.097Z,6.70
2018-11-23T14:54:27.621Z,6.60
2018-11-23T14:56:56.070Z,6.50
2018-11-23T14:59:24.564Z,6.50
2018-11-23T15:01:53.009Z,6.40
2018-11-23T15:04:27.000Z,6.40
2018-11-23T15:06:59.375Z,6.30
2018-11-23T15:09:30.182Z,6.30
2018-11-23T15:12:01.865Z,6.30
2018-11-23T15:14:30.579Z,6.20
2018-11-23T15:17:01.014Z,6.20
2018-11-23T15:19:32.395Z,6.20
2018-11-23T15:22:01.433Z,6.20
2018-11-23T15:24:29.803Z,6.20
2018-11-23T15:27:02.463Z,6.10
2018-11-23T15:29:34.658Z,6.10
2018-11-23T15:32:03.648Z,6.00
2018-11-23T15:34:33.057Z,5.90
2018-11-23T15:37:02.349Z,5.90
2018-11-23T15:39:33.400Z,5.80
2018-11-23T15:42:05.588Z,5.70
2018-11-23T15:44:34.416Z,5.60
2018-11-23T15:47:04.976Z,5.60
2018-11-23T15:49:37.211Z,5.60
2018-11-23T15:52:10.125Z,5.60
2018-11-23T15:54:38.729Z,5.60
2018-11-23T15:57:07.472Z,5.50
2018-11-23T15:59:39.281Z,5.50
2018-11-23T16:02:07.844Z,5.50
2018-11-23T16:04:39.407Z,5.50
2018-11-23T16:07:06.420Z,5.40
2018-11-23T16:09:37.798Z,5.30
2018-11-23T16:12:09.625Z,5.30
2018-11-23T16:14:42.053Z,5.30
2018-11-23T16:17:10.624Z,5.30
2018-11-23T16:19:41.112Z,5.30
2018-11-23T16:22:10.286Z,5.30
2018-11-23T16:24:42.629Z,5.20
2018-11-23T16:27:12.616Z,5.10
2018-11-23T16:29:43.463Z,5.10
2018-11-23T16:32:12.380Z,5.00
2018-11-23T16:34:42.573Z,4.90
2018-11-23T16:37:13.594Z,4.80
2018-11-23T16:39:44.314Z,4.80
2018-11-23T16:42:14.642Z,4.70
2018-11-23T16:44:46.502Z,4.70
2018-11-23T16:47:15.560Z,4.70
2018-11-23T16:49:45.409Z,4.60
2018-11-23T16:52:14.206Z,4.50
2018-11-23T16:57:38.950Z,4.40
2018-11-23T17:00:21.306Z,4.30
2018-11-23T17:02:50.664Z,4.30
2018-11-23T17:05:21.527Z,4.30
2018-11-23T17:07:51.358Z,4.30
2018-11-23T17:10:21.097Z,4.30
2018-11-23T17:12:50.830Z,4.20
2018-11-23T17:15:21.585Z,4.20
2018-11-23T17:17:50.657Z,4.10
2018-11-23T17:20:21.127Z,4.10
2018-11-23T17:22:51.053Z,4.10
2018-11-23T17:25:22.097Z,4.00
2018-11-23T17:27:53.354Z,4.00
2018-11-23T17:30:24.879Z,3.90
2018-11-23T17:32:54.292Z,3.90
2018-11-23T17:35:23.741Z,3.80
2018-11-23T17:37:52.686Z,3.80
2018-11-23T17:40:23.217Z,3.80
2018-11-23T17:42:52.290Z,3.80
2018-11-23T17:45:22.872Z,3.70
2018-11-23T17:47:52.505Z,3.70
2018-11-23T17:50:24.106Z,3.70
2018-11-23T17:52:53.939Z,3.50
2018-11-23T17:55:22.790Z,3.50
2018-11-23T17:57:52.316Z,3.50
2018-11-23T18:00:23.885Z,3.50
2018-11-23T18:02:53.213Z,3.50
2018-11-23T18:05:23.331Z,3.50
2018-11-23T18:07:53.321Z,3.50
2018-11-23T18:10:25.843Z,3.40
2018-11-23T18:12:55.745Z,3.30
2018-11-23T18:15:26.360Z,3.40
2018-11-23T18:17:56.290Z,3.30
2018-11-23T18:20:26.291Z,3.30
2018-11-23T18:22:58.125Z,3.30
2018-11-23T18:25:29.829Z,3.30
2018-11-23T18:28:00.456Z,3.20
2018-11-23T18:30:33.493Z,3.20
2018-11-23T18:33:04.943Z,3.20
2018-11-23T18:35:34.942Z,3.10
2018-11-23T18:38:03.947Z,3.10
2018-11-23T18:40:37.462Z,3.10
2018-11-23T18:43:02.798Z,3.00
2018-11-23T18:45:31.596Z,3.00
2018-11-23T18:48:00.389Z,3.00
2018-11-23T18:50:29.117Z,3.00
2018-11-23T18:52:58.866Z,3.00
2018-11-23T18:55:28.124Z,3.00
2018-11-23T18:57:57.535Z,2.90
2018-11-23T19:00:27.529Z,2.90
2018-11-23T19:02:58.997Z,3.00
2018-11-23T19:05:29.736Z,2.90
2018-11-23T19:08:00.440Z,2.90
2018-11-23T19:10:30.845Z,2.90
2018-11-23T19:13:01.721Z,2.80
2018-11-23T19:15:31.910Z,2.80
2018-11-23T19:18:02.666Z,2.80
2018-11-23T19:20:33.732Z,2.80
2018-11-23T19:23:02.908Z,2.80
2018-11-23T19:25:33.282Z,2.80
2018-11-23T19:28:05.553Z,2.70
2018-11-23T19:30:35.330Z,2.60
2018-11-23T19:33:05.689Z,2.70
2018-11-23T19:35:35.224Z,2.70
2018-11-23T19:38:08.795Z,2.70
2018-11-23T19:40:39.309Z,2.70
2018-11-23T19:43:11.370Z,2.70
2018-11-23T19:45:42.505Z,2.70
2018-11-23T19:48:14.376Z,2.80
2018-11-23T19:50:43.980Z,2.80
2018-11-23T19:53:13.317Z,2.80
2018-11-23T19:55:43.369Z,2.70
2018-11-23T19:58:12.438Z,2.70
2018-11-23T20:00:41.213Z,2.70
2018-11-23T20:03:10.126Z,2.70
2018-11-23T20:05:39.947Z,2.60
2018-11-23T20:08:17.474Z,2.60
2018-11-23T20:10:48.835Z,2.60
2018-11-23T20:13:18.556Z,2.60
2018-11-23T20:15:48.932Z,2.60
2018-11-23T20:18:19.395Z,2.60
2018-11-23T20:20:48.701Z,2.60
2018-11-23T20:23:18.648Z,2.60
2018-11-23T20:25:50.639Z,2.60
2018-11-23T20:28:19.970Z,2.50
2018-11-23T20:30:50.437Z,2.50
2018-11-23T20:33:21.297Z,2.50
2018-11-23T20:35:52.060Z,2.50
2018-11-23T20:38:23.553Z,2.50
2018-11-23T20:40:53.041Z,2.50
2018-11-23T20:43:25.320Z,2.50
2018-11-23T20:45:54.627Z,2.50
2018-11-23T20:48:25.023Z,2.50
2018-11-23T20:50:56.188Z,2.40
2018-11-23T20:53:25.385Z,2.40
2018-11-23T20:55:54.921Z,2.40
2018-11-23T20:58:24.585Z,2.50
2018-11-23T21:00:53.492Z,2.40
2018-11-23T21:03:22.299Z,2.40
2018-11-23T21:05:50.953Z,2.40
2018-11-23T21:08:22.092Z,2.40
2018-11-23T21:10:53.248Z,2.40
2018-11-23T21:13:23.781Z,2.40
2018-11-23T21:15:53.767Z,2.40
2018-11-23T21:18:23.926Z,2.40
2018-11-23T21:20:55.757Z,2.40
2018-11-23T21:23:25.473Z,2.50
2018-11-23T21:25:58.673Z,2.50
2018-11-23T21:28:29.425Z,2.50
2018-11-23T21:30:58.276Z,2.50
2018-11-23T21:33:26.979Z,2.50
2018-11-23T21:35:57.936Z,2.40
2018-11-23T21:38:27.739Z,2.50
2018-11-23T21:40:56.702Z,2.40
2018-11-23T21:43:25.488Z,2.40
2018-11-23T21:45:54.310Z,2.40
2018-11-23T21:48:23.533Z,2.40
2018-11-23T21:50:52.660Z,2.50
2018-11-23T21:53:23.139Z,2.50
2018-11-23T21:55:54.349Z,2.50
2018-11-23T21:58:28.902Z,2.40
2018-11-23T22:00:59.072Z,2.40
2018-11-23T22:03:35.672Z,2.40
2018-11-23T22:06:05.757Z,2.40
2018-11-23T22:08:34.899Z,2.40
2018-11-23T22:11:04.049Z,2.40
2018-11-23T22:13:33.927Z,2.40
2018-11-23T22:16:03.210Z,2.30
2018-11-23T22:18:35.128Z,2.30
2018-11-23T22:21:05.795Z,2.30
2018-11-23T22:23:36.387Z,2.30
2018-11-23T22:26:06.120Z,2.30
2018-11-23T22:28:37.346Z,2.30
2018-11-23T22:31:06.709Z,2.30
2018-11-23T22:33:35.403Z,2.30
2018-11-23T22:36:04.268Z,2.20
2018-11-23T22:38:33.015Z,2.30
2018-11-23T22:41:01.701Z,2.20
2018-11-23T22:43:30.512Z,2.20
2018-11-23T22:45:59.358Z,2.10
2018-11-23T22:48:28.013Z,2.20
2018-11-23T22:50:56.628Z,2.20
2018-11-23T22:53:25.326Z,2.10
2018-11-23T22:55:54.180Z,2.10
2018-11-23T22:58:23.092Z,2.10
2018-11-23T23:00:56.048Z,2.10
2018-11-23T23:03:24.914Z,2.10
2018-11-23T23:05:53.930Z,1.90
2018-11-23T23:08:22.725Z,2.00
2018-11-23T23:10:51.569Z,1.90
2018-11-23T23:13:20.404Z,1.90
2018-11-23T23:15:49.263Z,1.80
2018-11-23T23:18:18.227Z,1.80
2018-11-23T23:20:47.473Z,1.80
2018-11-23T23:23:16.275Z,1.70
2018-11-23T23:25:45.020Z,1.80
2018-11-23T23:28:13.812Z,1.70
2018-11-23T23:30:42.565Z,1.70
2018-11-23T23:33:11.231Z,1.70
2018-11-23T23:35:39.968Z,1.70
2018-11-23T23:38:08.684Z,1.60
2018-11-23T23:40:37.370Z,1.60
2018-11-23T23:43:05.985Z,1.60
2018-11-23T23:45:34.716Z,1.60
2018-11-23T23:48:03.560Z,1.70
2018-11-23T23:50:32.606Z,1.60
2018-11-23T23:53:01.430Z,1.50
2018-11-23T23:55:30.534Z,1.50
2018-11-23T23:57:59.456Z,1.50
